Time;durP1;ratioP1;P1;durP2;ratioP2;P2;SDS_P1;SDS_P2;PMS_P1;PMS_P2;Temp;Humidity;BMP_temperature;BMP_pressure;BME280_temperature;BME280_humidity;BME280_pressure;Samples;Min_cycle;Max_cycle;Signal;HPM_P1;HPM_P2
2022/12/08 00:01:15;;;;;;;129.20;18.97;;;0.20;99.90;;;;;;4982068;28;20226;-81
2022/12/08 00:03:42;;;;;;;19.27;12.13;;;0.20;99.90;;;;;;4974330;28;20229;-82
2022/12/08 00:09:22;;;;;;;42.90;13.33;;;0.20;99.90;;;;;;4971301;28;20218;-80
2022/12/08 00:11:52;;;;;;;20.40;12.87;;;0.20;99.90;;;;;;4979147;28;20236;-80
2022/12/08 00:14:20;;;;;;;62.67;16.70;;;0.20;99.90;;;;;;4974103;28;20282;-80
2022/12/08 00:16:46;;;;;;;116.57;19.27;;;0.20;99.90;;;;;;4979084;28;20232;-82
2022/12/08 00:19:13;;;;;;;199.97;23.30;;;0.20;99.90;;;;;;4976714;28;20282;-80
2022/12/08 00:21:40;;;;;;;44.13;15.93;;;0.20;99.90;;;;;;4976091;28;20223;-79
2022/12/08 00:24:07;;;;;;;243.53;26.80;;;0.20;99.90;;;;;;4975736;28;20671;-80
2022/12/08 00:26:33;;;;;;;23.67;15.33;;;0.20;99.90;;;;;;4979662;28;20914;-79
2022/12/08 00:29:02;;;;;;;38.27;15.90;;;0.20;99.90;;;;;;4980917;28;20772;-80
2022/12/08 00:31:29;;;;;;;33.43;15.97;;;0.20;99.90;;;;;;4978060;28;20836;-81
2022/12/08 00:33:55;;;;;;;28.60;15.70;;;0.20;99.90;;;;;;4973186;28;20229;-82
2022/12/08 00:36:22;;;;;;;26.67;16.13;;;0.20;99.90;;;;;;4979169;28;20225;-81
2022/12/08 00:38:49;;;;;;;85.67;18.77;;;0.20;99.90;;;;;;4972320;28;20316;-80
2022/12/08 00:41:18;;;;;;;41.53;16.40;;;0.20;99.90;;;;;;4976809;28;20301;-80
2022/12/08 00:43:45;;;;;;;24.93;16.17;;;0.20;99.90;;;;;;4968224;28;20785;-79
2022/12/08 00:46:14;;;;;;;33.20;16.50;;;0.20;99.90;;;;;;4975435;28;20260;-81
2022/12/08 00:48:41;;;;;;;40.70;17.33;;;0.30;99.90;;;;;;4973809;28;20222;-79
2022/12/08 00:51:07;;;;;;;32.83;16.40;;;0.20;99.90;;;;;;4980052;28;20233;-79
2022/12/08 00:53:34;;;;;;;35.03;16.27;;;0.20;99.90;;;;;;4980272;28;20232;-79
2022/12/08 00:56:01;;;;;;;27.33;16.97;;;0.20;99.90;;;;;;4974469;28;20223;-80
2022/12/08 00:58:28;;;;;;;37.90;17.57;;;0.30;99.90;;;;;;4970138;28;20802;-80
2022/12/08 01:00:55;;;;;;;52.53;18.03;;;0.30;99.90;;;;;;4979659;28;20229;-80
2022/12/08 01:03:24;;;;;;;231.50;28.83;;;0.30;99.90;;;;;;4980927;28;20229;-78
2022/12/08 01:05:51;;;;;;;29.40;16.83;;;0.30;99.90;;;;;;4977829;28;20229;-79
2022/12/08 01:08:18;;;;;;;27.00;16.63;;;0.40;99.90;;;;;;4972287;28;20254;-80
2022/12/08 01:10:44;;;;;;;30.40;16.97;;;0.30;99.90;;;;;;4980208;28;20703;-80
2022/12/08 01:13:11;;;;;;;78.33;19.83;;;0.40;99.90;;;;;;4987476;28;20319;-79
2022/12/08 01:15:38;;;;;;;22.50;16.10;;;0.40;99.90;;;;;;4973476;28;20305;-79
2022/12/08 01:18:05;;;;;;;64.97;18.90;;;0.50;99.90;;;;;;4976178;28;20210;-79
2022/12/08 01:20:33;;;;;;;27.50;16.03;;;0.40;99.90;;;;;;4976992;28;20326;-80
2022/12/08 01:22:59;;;;;;;26.20;16.53;;;0.50;99.90;;;;;;4977196;28;20619;-79
2022/12/08 01:25:26;;;;;;;25.10;16.00;;;0.50;99.90;;;;;;4972457;28;21082;-82
2022/12/08 01:27:53;;;;;;;27.73;15.70;;;0.50;99.90;;;;;;4979982;28;20234;-82
2022/12/08 01:30:20;;;;;;;33.67;16.67;;;0.50;99.90;;;;;;4980873;28;20245;-81
2022/12/08 01:32:47;;;;;;;23.97;16.07;;;0.50;99.90;;;;;;4981332;28;20225;-80
2022/12/08 01:35:14;;;;;;;34.03;16.63;;;0.50;99.90;;;;;;4980884;28;20238;-79
2022/12/08 01:37:42;;;;;;;25.50;15.63;;;0.60;99.90;;;;;;4983231;28;20825;-79
2022/12/08 01:40:09;;;;;;;25.90;16.07;;;0.60;99.90;;;;;;4979088;28;20279;-79
2022/12/08 01:42:37;;;;;;;21.90;14.60;;;0.60;99.90;;;;;;4977125;28;20217;-79
2022/12/08 01:45:05;;;;;;;22.47;14.63;;;0.60;99.90;;;;;;4978458;28;20228;-81
2022/12/08 01:47:40;;;;;;;22.07;15.43;;;0.60;99.90;;;;;;4972980;28;20260;-81
2022/12/08 01:50:10;;;;;;;55.10;16.70;;;0.60;99.90;;;;;;4971107;28;20232;-81
2022/12/08 01:52:40;;;;;;;21.53;14.83;;;0.60;99.90;;;;;;4977020;28;20224;-80
2022/12/08 01:55:14;;;;;;;33.83;14.47;;;0.70;99.90;;;;;;4978523;28;20250;-80
2022/12/08 01:57:43;;;;;;;19.27;13.83;;;0.60;99.90;;;;;;4976241;28;20786;-79
2022/12/08 02:00:13;;;;;;;69.17;17.20;;;0.70;99.90;;;;;;4972185;28;20881;-80
2022/12/08 02:02:48;;;;;;;41.83;14.57;;;0.70;99.90;;;;;;4980524;28;20314;-80
2022/12/08 02:05:16;;;;;;;60.77;15.10;;;0.70;99.90;;;;;;4995048;28;20238;-79
2022/12/08 02:07:43;;;;;;;156.97;19.87;;;0.80;99.90;;;;;;4983551;28;20225;-80
2022/12/08 02:10:14;;;;;;;21.50;13.13;;;0.80;99.90;;;;;;4991357;28;20237;-79
2022/12/08 02:12:40;;;;;;;71.77;15.43;;;0.80;99.90;;;;;;4971868;28;20246;-80
2022/12/08 02:15:08;;;;;;;19.20;11.90;;;0.80;99.90;;;;;;4974975;28;20246;-79
2022/12/08 02:17:49;;;;;;;22.13;11.43;;;0.90;99.90;;;;;;4980795;28;20225;-80
2022/12/08 02:20:49;;;;;;;25.70;11.30;;;0.90;99.90;;;;;;4982034;28;20303;-80
2022/12/08 02:23:26;;;;;;;15.70;11.23;;;0.90;99.90;;;;;;4984710;28;20232;-80
2022/12/08 02:26:27;;;;;;;16.80;9.77;;;0.90;99.90;;;;;;4980367;28;20321;-80
2022/12/08 02:29:19;;;;;;;31.57;10.50;;;0.90;99.90;;;;;;4969615;28;20311;-80
2022/12/08 02:31:57;;;;;;;86.27;12.17;;;0.90;99.90;;;;;;4981658;28;20815;-80
2022/12/08 02:34:29;;;;;;;10.93;7.90;;;0.90;99.90;;;;;;4978685;28;20852;-81
2022/12/08 02:37:07;;;;;;;55.60;10.23;;;0.90;99.90;;;;;;4982621;28;20232;-80
2022/12/08 02:39:42;;;;;;;9.40;8.00;;;0.90;99.90;;;;;;4977008;28;20333;-80
2022/12/08 02:42:14;;;;;;;22.80;8.90;;;0.90;99.90;;;;;;4981274;28;20317;-80
2022/12/08 02:44:47;;;;;;;55.97;11.97;;;0.90;99.90;;;;;;4973329;28;20257;-80
2022/12/08 02:47:17;;;;;;;24.13;10.30;;;0.80;99.90;;;;;;4980533;28;20313;-80
2022/12/08 02:49:46;;;;;;;37.37;11.27;;;0.80;99.90;;;;;;4982077;28;20317;-80
2022/12/08 02:52:39;;;;;;;20.43;9.77;;;0.80;99.90;;;;;;4977745;28;20228;-81
2022/12/08 02:55:10;;;;;;;24.13;11.10;;;0.80;99.90;;;;;;4980593;28;20226;-80
2022/12/08 02:57:51;;;;;;;22.53;11.40;;;0.80;99.90;;;;;;4977652;28;20242;-82
2022/12/08 03:00:19;;;;;;;19.10;11.43;;;0.80;99.90;;;;;;4973279;28;20774;-81
2022/12/08 03:03:02;;;;;;;40.13;12.23;;;0.80;99.90;;;;;;4976837;28;20234;-81
2022/12/08 03:05:46;;;;;;;23.90;11.47;;;0.80;99.90;;;;;;4995848;28;20237;-80
2022/12/08 03:08:18;;;;;;;57.27;13.77;;;0.80;99.90;;;;;;4983244;28;20231;-80
2022/12/08 03:10:51;;;;;;;15.47;11.73;;;0.80;99.90;;;;;;4979841;28;20230;-81
2022/12/08 03:13:23;;;;;;;111.53;17.03;;;0.90;99.90;;;;;;4979298;28;20588;-82
2022/12/08 03:15:51;;;;;;;53.67;13.97;;;0.80;99.90;;;;;;4972793;28;20812;-81
2022/12/08 03:18:23;;;;;;;24.03;12.70;;;0.90;99.90;;;;;;4987757;28;20310;-82
2022/12/08 03:20:52;;;;;;;35.03;12.57;;;0.90;99.90;;;;;;4982289;28;20852;-81
2022/12/08 03:23:19;;;;;;;11.47;9.37;;;0.90;99.90;;;;;;4979316;28;20226;-81
2022/12/08 03:25:55;;;;;;;33.70;10.33;;;1.00;99.90;;;;;;4976639;28;20445;-80
2022/12/08 03:28:22;;;;;;;12.57;8.27;;;1.00;99.90;;;;;;4977165;28;20228;-80
2022/12/08 03:30:55;;;;;;;9.80;7.90;;;1.00;99.90;;;;;;4979941;28;20217;-81
2022/12/08 03:33:26;;;;;;;12.53;7.53;;;1.00;99.90;;;;;;4967777;28;20233;-81
2022/12/08 03:35:56;;;;;;;8.43;6.63;;;1.10;99.90;;;;;;4969098;28;20236;-80
2022/12/08 03:38:23;;;;;;;8.83;6.43;;;1.10;99.90;;;;;;4982033;28;20218;-80
2022/12/08 03:43:31;;;;;;;7.57;5.70;;;1.20;99.90;;;;;;4980421;28;20287;-81
2022/12/08 03:45:57;;;;;;;9.63;5.63;;;1.20;99.90;;;;;;4977010;28;20816;-80
2022/12/08 03:48:24;;;;;;;10.63;5.70;;;1.20;99.90;;;;;;4978737;28;20258;-80
2022/12/08 03:50:52;;;;;;;8.80;5.50;;;1.20;99.90;;;;;;4986091;28;20240;-81
2022/12/08 03:53:20;;;;;;;9.90;5.33;;;1.30;99.90;;;;;;4973008;28;20225;-81
2022/12/08 03:55:50;;;;;;;7.37;5.40;;;1.30;99.90;;;;;;4983734;28;20435;-81
2022/12/08 03:58:18;;;;;;;8.53;5.00;;;1.30;99.90;;;;;;4981707;28;20700;-80
2022/12/08 04:00:45;;;;;;;7.60;5.17;;;1.30;99.90;;;;;;4980645;28;20642;-80
2022/12/08 04:03:12;;;;;;;7.60;4.83;;;1.30;99.90;;;;;;4978023;28;20231;-80
2022/12/08 04:05:38;;;;;;;6.73;4.97;;;1.30;99.90;;;;;;4975882;28;20222;-80
2022/12/08 04:08:05;;;;;;;11.77;5.27;;;1.40;99.90;;;;;;4978118;28;20222;-80
2022/12/08 04:10:34;;;;;;;9.60;4.67;;;1.40;99.90;;;;;;4974886;28;20321;-80
2022/12/08 04:13:01;;;;;;;5.53;4.10;;;1.40;99.90;;;;;;4979898;28;20288;-80
2022/12/08 04:15:28;;;;;;;5.20;3.77;;;1.40;99.90;;;;;;4986177;28;20255;-80
2022/12/08 04:17:54;;;;;;;7.00;4.50;;;1.40;99.90;;;;;;4979201;28;20293;-80
2022/12/08 04:20:21;;;;;;;5.20;3.93;;;1.40;99.90;;;;;;4976392;28;20234;-80
2022/12/08 04:22:48;;;;;;;4.73;3.90;;;1.40;99.90;;;;;;4976547;28;20226;-80
2022/12/08 04:25:15;;;;;;;5.07;3.83;;;1.40;99.90;;;;;;4972755;28;20757;-80
2022/12/08 04:27:43;;;;;;;7.63;4.50;;;1.40;99.90;;;;;;4979150;28;20360;-80
2022/12/08 04:30:11;;;;;;;3.83;3.40;;;1.40;99.90;;;;;;4977769;28;20221;-80
2022/12/08 04:32:39;;;;;;;6.10;3.60;;;1.40;99.90;;;;;;4979463;28;20263;-80
2022/12/08 04:35:06;;;;;;;3.37;3.00;;;1.40;99.90;;;;;;4973360;28;20227;-81
2022/12/08 04:37:33;;;;;;;3.77;3.07;;;1.40;99.90;;;;;;4981072;28;20230;-81
2022/12/08 04:40:00;;;;;;;4.40;2.60;;;1.40;99.90;;;;;;4975981;28;20306;-80
2022/12/08 04:42:27;;;;;;;3.10;2.60;;;1.40;99.90;;;;;;4984996;28;20849;-80
2022/12/08 04:44:55;;;;;;;3.87;2.57;;;1.40;99.90;;;;;;4978845;28;20334;-80
2022/12/08 04:47:22;;;;;;;3.80;3.30;;;1.50;99.90;;;;;;4977970;28;20225;-81
2022/12/08 04:49:49;;;;;;;2.80;2.50;;;1.50;99.90;;;;;;4979348;28;20950;-80
2022/12/08 04:52:17;;;;;;;2.90;2.50;;;1.40;99.90;;;;;;4986340;28;20601;-79
2022/12/08 04:54:44;;;;;;;3.67;2.30;;;1.50;99.90;;;;;;4985174;28;20266;-80
2022/12/08 04:57:11;;;;;;;2.97;2.60;;;1.40;99.90;;;;;;4978799;28;20226;-80
2022/12/08 04:59:39;;;;;;;7.03;2.73;;;1.40;99.90;;;;;;4981318;28;20996;-81
2022/12/08 05:02:07;;;;;;;3.73;2.50;;;1.40;99.90;;;;;;4965423;28;20222;-79
2022/12/08 05:04:33;;;;;;;5.60;2.63;;;1.40;99.90;;;;;;4972608;28;20288;-80
2022/12/08 05:07:00;;;;;;;3.40;2.93;;;1.40;99.90;;;;;;4972083;28;20625;-80
2022/12/08 05:09:27;;;;;;;4.03;3.00;;;1.40;99.90;;;;;;4963871;28;20251;-80
2022/12/08 05:11:54;;;;;;;3.10;2.80;;;1.40;99.90;;;;;;4961683;28;20641;-81
2022/12/08 05:14:21;;;;;;;2.93;2.70;;;1.50;99.90;;;;;;4959654;28;20291;-78
2022/12/08 05:16:48;;;;;;;3.30;2.43;;;1.40;99.90;;;;;;4962529;28;20824;-79
2022/12/08 05:19:19;;;;;;;3.93;2.63;;;1.40;99.90;;;;;;4979821;28;20228;-79
2022/12/08 05:21:46;;;;;;;3.23;2.93;;;1.40;99.90;;;;;;4979934;28;20272;-79
2022/12/08 05:24:13;;;;;;;3.27;2.80;;;1.40;99.90;;;;;;4976744;28;20228;-83
2022/12/08 05:26:40;;;;;;;2.77;2.57;;;1.40;99.90;;;;;;4973917;28;20229;-81
2022/12/08 05:29:07;;;;;;;2.93;2.70;;;1.40;99.90;;;;;;4963937;28;20223;-80
2022/12/08 05:31:33;;;;;;;20.60;3.83;;;1.40;99.90;;;;;;4973782;28;20254;-81
2022/12/08 05:34:00;;;;;;;57.67;6.20;;;1.40;99.90;;;;;;4977292;28;20222;-80
2022/12/08 05:36:28;;;;;;;25.90;4.17;;;1.40;99.90;;;;;;4974660;28;20271;-78
2022/12/08 05:38:56;;;;;;;23.00;4.60;;;1.40;99.90;;;;;;4978943;28;20509;-79
2022/12/08 05:41:23;;;;;;;5.43;3.50;;;1.40;99.90;;;;;;4980493;28;20284;-83
2022/12/08 05:43:50;;;;;;;4.57;3.80;;;1.40;99.90;;;;;;4980790;28;20236;-81
2022/12/08 05:46:17;;;;;;;59.77;7.27;;;1.50;99.90;;;;;;4977848;28;20271;-80
2022/12/08 05:48:44;;;;;;;68.23;7.20;;;1.50;99.90;;;;;;4985233;28;20250;-80
2022/12/08 05:51:17;;;;;;;29.40;5.00;;;1.50;99.90;;;;;;4978117;28;20711;-81
2022/12/08 05:53:45;;;;;;;20.90;4.90;;;1.50;99.90;;;;;;4991385;28;20268;-80
2022/12/08 05:56:12;;;;;;;27.30;4.70;;;1.50;99.90;;;;;;4975094;28;20723;-82
2022/12/08 05:58:39;;;;;;;30.17;4.60;;;1.50;99.90;;;;;;4969449;28;20883;-80
2022/12/08 06:01:07;;;;;;;3.50;3.20;;;1.50;99.90;;;;;;4971816;28;20344;-80
2022/12/08 06:03:34;;;;;;;10.77;3.40;;;1.50;99.90;;;;;;4979218;28;20229;-81
2022/12/08 06:06:01;;;;;;;3.70;3.00;;;1.50;99.90;;;;;;4976066;28;20262;-80
2022/12/08 06:08:27;;;;;;;5.63;2.97;;;1.50;99.90;;;;;;4975183;28;20842;-81
2022/12/08 06:10:55;;;;;;;5.80;3.13;;;1.50;99.90;;;;;;4981621;28;20221;-80
2022/12/08 06:13:22;;;;;;;13.70;3.90;;;1.60;99.90;;;;;;4979498;28;20260;-82
2022/12/08 06:15:49;;;;;;;25.00;4.63;;;1.50;99.90;;;;;;4980746;28;20328;-83
2022/12/08 06:18:16;;;;;;;8.73;3.70;;;1.50;99.90;;;;;;4975540;28;20279;-81
2022/12/08 06:20:42;;;;;;;8.53;3.70;;;1.60;99.90;;;;;;4975331;28;20236;-81
2022/12/08 06:23:09;;;;;;;3.63;3.33;;;1.60;99.90;;;;;;4976170;28;20230;-81
2022/12/08 06:25:36;;;;;;;4.07;3.63;;;1.60;99.90;;;;;;4968894;28;20234;-81
2022/12/08 06:28:06;;;;;;;3.60;3.30;;;1.60;99.90;;;;;;4959480;28;20234;-82
2022/12/08 06:30:32;;;;;;;4.93;3.60;;;1.60;99.90;;;;;;4978891;28;20686;-83
2022/12/08 06:32:59;;;;;;;3.83;3.43;;;1.60;99.90;;;;;;4983316;28;20247;-82
2022/12/08 06:35:26;;;;;;;4.33;3.93;;;1.60;99.90;;;;;;4978898;28;20229;-80
2022/12/08 06:37:53;;;;;;;3.77;3.47;;;1.60;99.90;;;;;;4981465;28;20362;-81
2022/12/08 06:40:20;;;;;;;13.00;4.20;;;1.60;99.90;;;;;;4974979;28;20246;-79
2022/12/08 06:42:47;;;;;;;5.07;3.60;;;1.60;99.90;;;;;;4978776;28;20759;-81
2022/12/08 06:45:17;;;;;;;4.40;3.20;;;1.60;99.90;;;;;;4978908;28;20238;-82
2022/12/08 06:47:44;;;;;;;3.67;3.27;;;1.60;99.90;;;;;;4973252;28;20729;-79
2022/12/08 06:50:12;;;;;;;24.93;4.63;;;1.60;99.90;;;;;;4978446;28;20656;-80
2022/12/08 06:52:42;;;;;;;6.67;3.70;;;1.60;99.90;;;;;;4982615;28;20232;-82
2022/12/08 06:55:10;;;;;;;6.13;3.67;;;1.60;99.90;;;;;;4979092;28;20222;-81
2022/12/08 06:57:36;;;;;;;4.10;3.70;;;1.60;99.90;;;;;;4982911;28;20259;-81
2022/12/08 07:00:05;;;;;;;17.13;4.50;;;1.60;99.90;;;;;;4969918;28;20224;-81
2022/12/08 07:02:33;;;;;;;7.07;3.87;;;1.70;99.90;;;;;;4967839;28;20233;-82
2022/12/08 07:05:00;;;;;;;8.40;4.60;;;1.70;99.90;;;;;;4965457;28;20301;-82
2022/12/08 07:07:29;;;;;;;24.13;4.87;;;1.70;99.90;;;;;;4971831;28;20232;-81
2022/12/08 07:09:56;;;;;;;49.47;6.47;;;1.70;99.90;;;;;;4984179;28;20488;-81
2022/12/08 07:12:22;;;;;;;15.17;4.13;;;1.70;99.90;;;;;;4980926;28;20233;-81
2022/12/08 07:14:51;;;;;;;11.77;3.77;;;1.70;99.90;;;;;;4979754;28;20234;-80
2022/12/08 07:17:18;;;;;;;3.90;3.50;;;1.70;99.90;;;;;;4974597;28;20229;-83
2022/12/08 07:19:46;;;;;;;4.60;3.43;;;1.70;99.90;;;;;;4980584;28;20226;-82
2022/12/08 07:22:13;;;;;;;21.50;4.50;;;1.70;99.90;;;;;;4979060;28;20226;-81
2022/12/08 07:24:39;;;;;;;138.10;11.23;;;1.60;99.90;;;;;;4974729;28;20232;-81
2022/12/08 07:27:06;;;;;;;65.87;6.77;;;1.60;99.90;;;;;;4979295;28;20226;-82
2022/12/08 07:29:33;;;;;;;26.87;5.00;;;1.60;99.90;;;;;;4978799;28;20308;-82
2022/12/08 07:31:59;;;;;;;16.80;4.10;;;1.50;99.90;;;;;;4970580;28;20421;-81
2022/12/08 07:34:26;;;;;;;36.37;5.10;;;1.50;99.90;;;;;;4972588;28;20224;-79
2022/12/08 07:36:54;;;;;;;36.40;5.20;;;1.30;99.90;;;;;;4976732;28;20232;-79
2022/12/08 07:39:21;;;;;;;7.20;4.10;;;1.30;99.90;;;;;;4985458;28;20235;-79
2022/12/08 07:41:49;;;;;;;10.43;3.93;;;1.30;99.90;;;;;;4978159;28;20230;-80
2022/12/08 07:44:16;;;;;;;4.67;3.80;;;1.30;99.90;;;;;;4975719;28;20222;-79
2022/12/08 07:46:43;;;;;;;5.90;4.10;;;1.20;99.90;;;;;;4973494;28;20238;-79
2022/12/08 07:49:10;;;;;;;7.03;5.63;;;1.10;99.90;;;;;;4970725;28;20225;-83
2022/12/08 07:51:36;;;;;;;7.00;5.40;;;1.10;99.90;;;;;;4982445;28;20226;-83
2022/12/08 07:54:04;;;;;;;24.60;7.80;;;1.00;99.90;;;;;;4972608;28;20234;-83
2022/12/08 07:56:31;;;;;;;6.37;5.57;;;1.00;99.90;;;;;;4975562;28;20228;-82
2022/12/08 07:58:58;;;;;;;14.03;5.87;;;1.00;99.90;;;;;;4984673;28;20238;-80
2022/12/08 08:01:27;;;;;;;7.13;5.30;;;1.00;99.90;;;;;;4972600;28;20602;-80
2022/12/08 08:03:55;;;;;;;21.97;6.83;;;1.00;99.90;;;;;;4984941;28;20235;-79
2022/12/08 08:06:22;;;;;;;8.43;7.30;;;1.00;99.90;;;;;;4979886;28;20238;-80
2022/12/08 08:08:49;;;;;;;41.73;8.50;;;0.90;99.90;;;;;;4974239;28;20215;-79
2022/12/08 08:11:17;;;;;;;11.97;8.97;;;0.90;99.90;;;;;;4971341;28;20219;-81
2022/12/08 08:13:44;;;;;;;6.17;5.47;;;0.90;99.90;;;;;;4976032;28;20230;-79
2022/12/08 08:16:12;;;;;;;11.43;9.10;;;0.90;99.90;;;;;;4975702;28;20236;-81
2022/12/08 08:18:39;;;;;;;10.70;9.03;;;0.90;99.90;;;;;;4969383;28;20328;-80
2022/12/08 08:21:06;;;;;;;10.83;8.50;;;0.90;99.90;;;;;;4969251;28;20312;-80
2022/12/08 08:23:33;;;;;;;9.70;8.00;;;0.90;99.90;;;;;;4974012;28;20254;-80
2022/12/08 08:26:01;;;;;;;286.20;24.47;;;0.90;99.90;;;;;;4983021;28;20691;-83
2022/12/08 08:28:30;;;;;;;12.13;8.50;;;0.90;99.90;;;;;;4991159;28;20573;-85
2022/12/08 08:30:57;;;;;;;10.60;8.47;;;0.90;99.90;;;;;;4969696;28;20976;-79
2022/12/08 08:33:24;;;;;;;9.37;6.97;;;0.90;99.90;;;;;;4965871;28;20282;-79
2022/12/08 08:35:53;;;;;;;7.17;6.47;;;0.80;99.90;;;;;;4975922;28;20749;-78
2022/12/08 08:38:20;;;;;;;8.40;6.57;;;0.80;99.90;;;;;;4976075;28;20219;-79
2022/12/08 08:40:47;;;;;;;15.93;7.13;;;0.80;99.90;;;;;;4974137;28;20234;-79
2022/12/08 08:43:27;;;;;;;12.60;6.73;;;0.80;99.90;;;;;;4970687;28;20700;-78
2022/12/08 08:45:57;;;;;;;34.67;8.33;;;0.80;99.90;;;;;;4975603;28;20230;-78
2022/12/08 08:48:23;;;;;;;10.57;6.60;;;0.90;99.90;;;;;;4973198;28;21537;-77
2022/12/08 08:50:50;;;;;;;9.93;7.57;;;0.90;99.90;;;;;;4969545;28;20325;-78
2022/12/08 08:53:17;;;;;;;12.40;9.13;;;0.90;99.90;;;;;;4954345;28;20222;-79
2022/12/08 08:55:43;;;;;;;44.40;10.67;;;0.90;99.90;;;;;;4970135;28;20236;-79
2022/12/08 08:58:10;;;;;;;10.03;8.97;;;0.90;99.90;;;;;;4973252;28;20230;-80
2022/12/08 09:00:37;;;;;;;9.10;7.33;;;0.90;99.90;;;;;;4973131;28;20280;-81
2022/12/08 09:03:05;;;;;;;12.17;8.87;;;1.00;99.90;;;;;;4978972;28;20225;-81
2022/12/08 09:05:31;;;;;;;10.47;8.60;;;1.00;99.90;;;;;;4979699;28;20244;-80
2022/12/08 09:07:58;;;;;;;11.10;9.37;;;1.00;99.90;;;;;;4977563;28;20929;-79
2022/12/08 09:10:25;;;;;;;17.97;7.93;;;1.10;99.90;;;;;;4974286;28;20590;-81
2022/12/08 09:12:52;;;;;;;17.63;8.43;;;1.10;99.90;;;;;;4977304;28;20329;-80
2022/12/08 09:15:19;;;;;;;16.53;7.97;;;1.10;99.90;;;;;;4971762;28;20240;-80
2022/12/08 09:17:46;;;;;;;8.90;7.17;;;1.10;99.90;;;;;;4971300;28;20273;-81
2022/12/08 09:20:14;;;;;;;8.33;6.83;;;1.20;99.90;;;;;;4955790;28;20229;-80
2022/12/08 09:22:41;;;;;;;7.83;6.63;;;1.20;99.90;;;;;;4957483;28;20221;-79
2022/12/08 09:25:08;;;;;;;10.10;7.40;;;1.20;99.90;;;;;;4971145;28;20236;-80
2022/12/08 09:27:35;;;;;;;8.77;7.23;;;1.20;99.90;;;;;;4976862;28;20218;-79
2022/12/08 09:30:01;;;;;;;10.03;6.67;;;1.20;99.90;;;;;;4974608;28;20222;-79
2022/12/08 09:32:28;;;;;;;17.70;7.97;;;1.20;99.90;;;;;;4971443;28;20699;-79
2022/12/08 09:34:56;;;;;;;56.43;9.17;;;1.20;99.90;;;;;;4983918;28;20240;-79
2022/12/08 09:37:24;;;;;;;13.20;7.10;;;1.30;99.90;;;;;;4982324;28;20803;-79
2022/12/08 09:39:51;;;;;;;7.63;6.37;;;1.20;99.90;;;;;;4996949;28;20237;-80
2022/12/08 09:42:25;;;;;;;17.63;7.20;;;1.20;99.90;;;;;;4968884;28;20224;-80
2022/12/08 09:44:58;;;;;;;90.53;11.23;;;1.20;99.90;;;;;;4950595;28;20230;-80
2022/12/08 09:47:47;;;;;;;44.87;8.43;;;1.20;99.90;;;;;;4981143;28;20333;-81
2022/12/08 09:50:19;;;;;;;136.57;12.57;;;1.20;99.90;;;;;;4970816;28;20842;-81
2022/12/08 09:52:57;;;;;;;8.20;6.70;;;1.10;99.90;;;;;;4983284;28;20230;-82
2022/12/08 09:55:33;;;;;;;87.47;9.63;;;1.20;99.90;;;;;;4979980;28;20240;-81
2022/12/08 09:58:02;;;;;;;10.37;6.23;;;1.20;99.90;;;;;;4990638;28;20230;-80
2022/12/08 10:00:29;;;;;;;33.03;7.43;;;1.20;99.90;;;;;;4961309;28;20230;-82
2022/12/08 10:02:56;;;;;;;37.57;6.90;;;1.10;99.90;;;;;;4973383;28;20300;-80
2022/12/08 10:05:24;;;;;;;95.83;9.47;;;1.10;99.90;;;;;;4972360;28;20222;-81
2022/12/08 10:08:03;;;;;;;36.60;6.80;;;1.10;99.90;;;;;;4979503;28;20320;-80
2022/12/08 10:10:40;;;;;;;44.80;6.60;;;1.10;99.90;;;;;;4983428;28;20235;-82
2022/12/08 10:13:16;;;;;;;25.60;5.50;;;1.10;99.90;;;;;;4969698;28;20228;-83
2022/12/08 10:15:47;;;;;;;5.50;4.40;;;1.20;99.90;;;;;;4987489;28;20233;-83
2022/12/08 10:18:17;;;;;;;268.97;21.17;;;1.20;99.90;;;;;;4990971;28;20289;-84
2022/12/08 10:20:47;;;;;;;26.57;5.37;;;1.20;99.90;;;;;;4993804;28;20231;-84
2022/12/08 10:23:24;;;;;;;123.10;9.73;;;1.20;99.90;;;;;;4981872;28;20255;-84
2022/12/08 10:25:55;;;;;;;13.80;4.27;;;1.30;99.90;;;;;;4993967;28;20259;-84
2022/12/08 10:28:22;;;;;;;22.43;5.20;;;1.30;99.90;;;;;;4980239;28;20244;-85
2022/12/08 10:30:48;;;;;;;73.00;7.30;;;1.40;99.90;;;;;;4988309;28;20469;-86
2022/12/08 10:33:17;;;;;;;20.70;10.30;;;1.40;99.90;;;;;;4989303;28;20320;-86
2022/12/08 10:35:47;;;;;;;69.37;10.13;;;1.40;99.90;;;;;;4990191;28;20742;-84
2022/12/08 10:38:21;;;;;;;23.33;14.97;;;1.50;99.90;;;;;;4993116;28;20230;-85
2022/12/08 10:40:51;;;;;;;35.60;21.93;;;1.50;99.90;;;;;;4984872;28;20234;-85
2022/12/08 10:43:22;;;;;;;38.40;21.73;;;1.50;99.90;;;;;;4989499;28;20742;-85
2022/12/08 10:45:48;;;;;;;36.70;24.57;;;1.50;99.90;;;;;;4978828;28;20313;-87
2022/12/08 10:48:18;;;;;;;50.53;25.67;;;1.50;99.90;;;;;;4973769;28;20557;-86
2022/12/08 10:50:47;;;;;;;65.17;32.20;;;1.50;99.90;;;;;;4978625;28;20229;-87
2022/12/08 10:53:19;;;;;;;55.37;34.30;;;1.50;99.90;;;;;;4978035;28;20221;-84
2022/12/08 10:55:50;;;;;;;48.50;32.63;;;1.50;99.90;;;;;;4981328;28;20283;-84
2022/12/08 10:58:32;;;;;;;38.17;25.57;;;1.50;99.90;;;;;;4979490;28;20221;-86
2022/12/08 11:01:04;;;;;;;25.80;19.17;;;1.50;99.90;;;;;;4963938;28;20234;-85
2022/12/08 11:03:35;;;;;;;36.07;13.53;;;1.50;99.90;;;;;;4978106;28;20249;-87
2022/12/08 11:06:13;;;;;;;27.47;11.23;;;1.60;99.90;;;;;;4983861;28;20323;-84
2022/12/08 11:08:48;;;;;;;37.57;9.57;;;1.60;99.90;;;;;;4982703;28;20224;-84
2022/12/08 11:11:20;;;;;;;9.53;6.30;;;1.60;99.90;;;;;;4981312;28;20323;-85
2022/12/08 11:13:49;;;;;;;8.10;6.30;;;1.70;99.90;;;;;;4974056;28;20223;-84
2022/12/08 11:16:17;;;;;;;10.30;5.93;;;1.70;99.90;;;;;;4976401;28;20223;-84
2022/12/08 11:18:48;;;;;;;12.90;5.67;;;1.70;99.90;;;;;;4969599;28;20250;-85
2022/12/08 11:21:18;;;;;;;21.30;6.50;;;1.80;99.90;;;;;;4977348;28;20357;-84
2022/12/08 11:23:48;;;;;;;29.47;7.23;;;1.80;99.90;;;;;;4980914;28;20246;-84
2022/12/08 11:26:26;;;;;;;13.93;6.37;;;1.80;99.90;;;;;;4982453;28;20528;-84
2022/12/08 11:28:53;;;;;;;17.30;6.80;;;1.80;99.90;;;;;;4983176;28;20214;-84
2022/12/08 11:31:27;;;;;;;31.87;8.73;;;1.80;99.90;;;;;;4973298;28;20590;-83
2022/12/08 11:33:54;;;;;;;21.83;14.33;;;1.80;99.90;;;;;;4977742;28;20229;-83
2022/12/08 11:36:24;;;;;;;29.83;17.37;;;1.80;99.90;;;;;;4979923;28;20731;-83
2022/12/08 11:38:55;;;;;;;34.40;21.70;;;1.80;99.90;;;;;;4980480;28;20229;-82
2022/12/08 11:41:29;;;;;;;33.60;20.93;;;1.70;99.90;;;;;;4973905;28;20234;-82
2022/12/08 11:44:01;;;;;;;36.60;23.47;;;1.70;99.90;;;;;;4979004;28;20221;-82
2022/12/08 11:46:34;;;;;;;49.70;26.80;;;1.70;99.90;;;;;;4979884;28;20237;-82
2022/12/08 11:49:03;;;;;;;42.00;25.97;;;1.70;99.90;;;;;;4975998;28;20218;-82
2022/12/08 11:51:35;;;;;;;35.30;19.53;;;1.80;99.90;;;;;;4978947;28;20225;-82
2022/12/08 11:54:22;;;;;;;38.50;21.30;;;1.80;99.90;;;;;;4993691;28;20222;-82
2022/12/08 11:57:05;;;;;;;32.27;20.50;;;1.80;99.90;;;;;;5135591;27;20595;-82
2022/12/08 11:59:34;;;;;;;42.03;19.20;;;1.90;99.90;;;;;;5097622;28;20229;-83
2022/12/08 12:02:04;;;;;;;30.70;17.90;;;1.80;99.90;;;;;;5090760;28;20641;-83
2022/12/08 12:04:40;;;;;;;57.07;17.17;;;1.80;99.90;;;;;;5100629;28;20217;-81
2022/12/08 12:07:26;;;;;;;42.70;11.00;;;1.80;99.90;;;;;;5098284;27;20228;-82
2022/12/08 12:10:12;;;;;;;8.70;6.80;;;1.80;99.90;;;;;;5101735;27;20277;-82
2022/12/08 12:12:55;;;;;;;17.07;6.27;;;1.80;99.90;;;;;;5112248;27;20244;-83
2022/12/08 12:15:51;;;;;;;7.23;5.30;;;1.80;99.90;;;;;;5100542;27;20223;-82
2022/12/08 12:18:25;;;;;;;7.47;5.20;;;1.80;99.90;;;;;;5089854;28;20589;-82
2022/12/08 12:20:55;;;;;;;158.43;13.63;;;1.80;99.90;;;;;;5087654;27;20223;-82
2022/12/08 12:23:29;;;;;;;11.30;5.23;;;1.80;99.90;;;;;;5097518;27;20210;-82
2022/12/08 12:25:59;;;;;;;7.40;4.77;;;1.80;99.90;;;;;;5102712;28;20217;-82
2022/12/08 12:28:41;;;;;;;9.23;6.37;;;1.80;99.90;;;;;;5099190;27;20221;-82
2022/12/08 12:31:11;;;;;;;15.17;8.50;;;1.80;99.90;;;;;;5114326;27;20213;-82
2022/12/08 12:33:42;;;;;;;14.83;8.60;;;1.70;99.90;;;;;;5109647;27;20457;-82
2022/12/08 12:36:12;;;;;;;14.63;9.37;;;1.70;99.90;;;;;;5117464;27;20589;-82
2022/12/08 12:39:03;;;;;;;19.40;12.33;;;1.80;99.90;;;;;;5118952;27;20221;-82
2022/12/08 12:41:35;;;;;;;18.80;12.77;;;1.80;99.90;;;;;;5093907;27;20251;-81
2022/12/08 12:44:24;;;;;;;22.33;11.93;;;1.80;99.90;;;;;;5111931;27;20220;-82
2022/12/08 12:46:56;;;;;;;19.47;11.50;;;1.80;99.90;;;;;;5105155;28;20627;-82
2022/12/08 12:50:14;;;;;;;24.80;11.93;;;1.80;99.90;;;;;;5120937;27;20419;-82
2022/12/08 12:52:47;;;;;;;23.70;14.97;;;1.90;99.90;;;;;;5102284;27;20214;-82
2022/12/08 12:55:36;;;;;;;20.63;9.73;;;1.90;99.90;;;;;;5097706;27;20253;-82
2022/12/08 12:58:20;;;;;;;19.27;10.10;;;1.90;99.90;;;;;;5126783;27;20220;-83
2022/12/08 13:00:48;;;;;;;16.13;8.10;;;1.90;99.90;;;;;;5106428;27;20228;-83
2022/12/08 13:03:16;;;;;;;14.77;8.23;;;1.90;99.90;;;;;;5112338;27;20705;-83
2022/12/08 13:05:50;;;;;;;10.67;7.37;;;1.90;99.90;;;;;;5113812;27;20227;-83